createdAt,value
2018-06-21T00:00:02.406Z,99.90
2018-06-21T00:03:07.158Z,99.90
2018-06-21T00:06:11.686Z,99.90
2018-06-21T00:09:15.964Z,99.90
2018-06-21T00:12:20.341Z,99.90
2018-06-21T00:15:24.636Z,99.90
2018-06-21T00:18:28.873Z,99.90
2018-06-21T00:21:33.133Z,99.90
2018-06-21T00:24:37.423Z,99.90
2018-06-21T00:27:41.681Z,99.90
2018-06-21T00:30:46.002Z,99.90
2018-06-21T00:33:50.285Z,99.90
2018-06-21T00:36:54.614Z,99.90
2018-06-21T00:39:58.901Z,99.90
2018-06-21T00:43:03.237Z,99.90
2018-06-21T00:46:07.649Z,99.90
2018-06-21T00:49:11.981Z,99.90
2018-06-21T00:52:16.253Z,99.90
2018-06-21T00:56:29.909Z,99.90
2018-06-21T00:59:34.177Z,99.90
2018-06-21T01:02:38.505Z,99.90
2018-06-21T01:05:42.761Z,99.90
2018-06-21T01:08:47.119Z,99.90
2018-06-21T01:11:51.466Z,99.90
2018-06-21T01:14:55.853Z,99.90
2018-06-21T01:18:00.128Z,99.90
2018-06-21T01:21:04.844Z,99.90
2018-06-21T01:24:09.282Z,99.90
2018-06-21T01:27:13.665Z,99.90
2018-06-21T01:30:17.954Z,99.90
2018-06-21T01:33:22.296Z,99.90
2018-06-21T01:36:26.557Z,99.90
2018-06-21T01:39:30.916Z,99.90
2018-06-21T01:42:35.268Z,99.90
2018-06-21T01:45:40.966Z,99.90
2018-06-21T01:48:46.200Z,99.90
2018-06-21T01:54:57.301Z,99.90
2018-06-21T01:58:02.619Z,99.50
2018-06-21T02:01:06.949Z,99.30
2018-06-21T02:04:11.369Z,98.90
2018-06-21T02:07:15.872Z,98.80
2018-06-21T02:10:20.237Z,99.20
2018-06-21T02:13:24.777Z,98.80
2018-06-21T02:16:29.101Z,99.10
2018-06-21T02:19:33.496Z,99.00
2018-06-21T02:22:37.800Z,99.30
2018-06-21T02:25:42.158Z,99.50
2018-06-21T02:28:47.894Z,99.50
2018-06-21T02:31:52.203Z,99.00
2018-06-21T02:34:56.990Z,98.80
2018-06-21T02:38:01.370Z,98.40
2018-06-21T02:41:05.875Z,98.80
2018-06-21T02:44:10.781Z,98.60
2018-06-21T02:47:15.141Z,98.60
2018-06-21T02:50:20.435Z,98.80
2018-06-21T02:53:24.789Z,98.80
2018-06-21T02:56:29.107Z,98.50
2018-06-21T02:59:33.471Z,98.40
2018-06-21T03:02:37.749Z,98.60
2018-06-21T03:05:42.042Z,98.70
2018-06-21T03:08:46.691Z,98.80
2018-06-21T03:11:51.006Z,98.50
2018-06-21T03:14:55.645Z,98.60
2018-06-21T03:18:00.016Z,98.10
2018-06-21T03:21:04.361Z,98.30
2018-06-21T03:24:08.687Z,97.90
2018-06-21T03:27:13.235Z,98.00
2018-06-21T03:30:17.606Z,98.10
2018-06-21T03:33:21.915Z,97.70
2018-06-21T03:36:26.168Z,97.70
2018-06-21T03:39:30.896Z,97.70
2018-06-21T03:42:35.264Z,97.80
2018-06-21T03:45:39.641Z,97.80
2018-06-21T03:48:44.010Z,98.00
2018-06-21T03:51:48.520Z,97.80
2018-06-21T03:54:53.449Z,98.30
2018-06-21T03:57:57.863Z,98.40
2018-06-21T04:01:02.181Z,98.40
2018-06-21T04:04:06.481Z,97.80
2018-06-21T04:07:19.585Z,98.30
2018-06-21T04:10:23.879Z,98.10
2018-06-21T04:13:28.178Z,98.30
2018-06-21T04:16:32.437Z,98.30
2018-06-21T04:19:37.093Z,98.50
2018-06-21T04:22:41.420Z,98.40
2018-06-21T04:25:45.761Z,98.30
2018-06-21T04:28:50.091Z,98.40
2018-06-21T04:31:54.401Z,98.30
2018-06-21T04:34:58.682Z,98.10
2018-06-21T04:38:03.041Z,97.70
2018-06-21T04:41:07.290Z,97.90
2018-06-21T04:44:11.720Z,97.90
2018-06-21T04:47:16.006Z,97.10
2018-06-21T04:50:20.426Z,97.10
2018-06-21T04:53:24.799Z,97.30
2018-06-21T04:56:29.098Z,97.10
2018-06-21T04:59:33.408Z,97.20
2018-06-21T05:02:37.688Z,97.00
2018-06-21T05:08:46.009Z,96.40
2018-06-21T05:11:50.243Z,96.10
2018-06-21T05:14:54.533Z,96.00
2018-06-21T05:17:58.848Z,96.20
2018-06-21T05:21:03.223Z,96.30
2018-06-21T05:24:07.663Z,96.20
2018-06-21T05:27:12.279Z,96.00
2018-06-21T05:30:16.641Z,96.20
2018-06-21T05:33:21.004Z,96.30
2018-06-21T05:36:25.313Z,95.80
2018-06-21T05:39:29.604Z,95.70
2018-06-21T05:42:33.912Z,95.80
2018-06-21T05:45:38.260Z,95.90
2018-06-21T05:48:42.585Z,95.80
2018-06-21T05:51:47.197Z,96.00
2018-06-21T05:54:51.502Z,95.90
2018-06-21T05:57:55.852Z,95.90
2018-06-21T06:01:00.136Z,95.20
2018-06-21T06:04:04.458Z,95.50
2018-06-21T06:07:08.774Z,95.70
2018-06-21T06:10:13.128Z,95.30
2018-06-21T06:13:17.410Z,95.50
2018-06-21T06:16:21.924Z,95.20
2018-06-21T06:19:26.366Z,95.20
2018-06-21T06:22:30.879Z,94.90
2018-06-21T06:25:35.347Z,95.10
2018-06-21T06:28:39.683Z,95.30
2018-06-21T06:31:44.071Z,95.30
2018-06-21T06:34:48.575Z,95.10
2018-06-21T06:37:52.804Z,95.30
2018-06-21T06:40:57.241Z,95.40
2018-06-21T06:44:01.533Z,94.70
2018-06-21T06:47:06.092Z,95.00
2018-06-21T06:50:10.377Z,95.10
2018-06-21T06:53:14.664Z,94.60
2018-06-21T06:56:19.030Z,94.70
2018-06-21T06:59:23.361Z,94.50
2018-06-21T07:02:27.668Z,94.80
2018-06-21T07:05:31.993Z,94.50
2018-06-21T07:08:36.280Z,95.00
2018-06-21T07:11:40.645Z,94.70
2018-06-21T07:14:44.934Z,94.50
2018-06-21T07:17:49.220Z,94.50
2018-06-21T07:20:53.578Z,95.10
2018-06-21T07:23:57.900Z,95.60
2018-06-21T07:27:02.268Z,96.30
2018-06-21T07:30:07.438Z,96.60
2018-06-21T07:33:11.773Z,96.50
2018-06-21T07:36:16.149Z,96.90
2018-06-21T07:39:20.618Z,97.60
2018-06-21T07:45:29.174Z,96.60
2018-06-21T07:48:33.477Z,96.90
2018-06-21T07:51:37.813Z,98.30
2018-06-21T07:54:42.135Z,98.40
2018-06-21T07:57:46.451Z,99.20
2018-06-21T08:00:51.274Z,99.90
2018-06-21T08:03:55.807Z,99.90
2018-06-21T08:07:00.131Z,99.90
2018-06-21T08:10:04.466Z,99.90
2018-06-21T08:13:09.734Z,99.90
2018-06-21T08:16:14.792Z,99.90
2018-06-21T08:19:19.167Z,99.90
2018-06-21T08:22:24.640Z,99.90
2018-06-21T08:25:29.551Z,99.90
2018-06-21T08:28:34.484Z,99.90
2018-06-21T08:31:42.698Z,99.90
2018-06-21T08:34:49.087Z,99.90
2018-06-21T08:38:03.740Z,99.90
2018-06-21T08:41:08.850Z,99.90
2018-06-21T08:44:15.566Z,99.90
2018-06-21T08:47:21.772Z,99.90
2018-06-21T08:50:28.873Z,99.90
2018-06-21T08:53:34.526Z,99.90
2018-06-21T08:56:39.674Z,99.90
2018-06-21T08:59:47.751Z,99.90
2018-06-21T09:02:53.113Z,99.90
2018-06-21T09:06:01.705Z,99.90
2018-06-21T09:09:12.107Z,99.90
2018-06-21T09:12:20.738Z,99.90
2018-06-21T09:15:36.777Z,99.90
2018-06-21T09:18:50.136Z,99.90
2018-06-21T09:22:00.878Z,99.90
2018-06-21T09:25:06.377Z,99.90
2018-06-21T09:28:12.994Z,99.90
2018-06-21T09:31:23.337Z,99.90
2018-06-21T09:34:34.641Z,99.90
2018-06-21T09:37:51.988Z,99.90
2018-06-21T09:41:07.925Z,99.90
2018-06-21T09:44:24.373Z,99.90
2018-06-21T09:47:38.441Z,99.90
2018-06-21T09:50:51.202Z,99.90
2018-06-21T09:54:03.462Z,99.90
2018-06-21T09:57:16.165Z,99.40
2018-06-21T10:00:32.191Z,99.50
2018-06-21T10:07:02.346Z,99.10
2018-06-21T10:10:20.247Z,99.00
2018-06-21T10:13:26.099Z,97.60
2018-06-21T10:16:33.333Z,98.10
2018-06-21T10:19:44.521Z,97.70
2018-06-21T10:22:59.332Z,97.80
2018-06-21T10:26:10.941Z,97.20
2018-06-21T10:29:24.998Z,96.80
2018-06-21T10:32:46.959Z,97.30
2018-06-21T10:36:03.010Z,98.40
2018-06-21T10:39:20.324Z,98.20
2018-06-21T10:42:33.013Z,98.90
2018-06-21T10:45:44.915Z,98.90
2018-06-21T10:48:53.674Z,99.60
2018-06-21T10:52:02.531Z,99.90
2018-06-21T10:58:33.640Z,99.90
2018-06-21T11:01:50.140Z,99.90
2018-06-21T11:05:02.716Z,99.90
2018-06-21T11:08:17.656Z,99.90
2018-06-21T11:11:31.683Z,99.90
2018-06-21T11:18:02.299Z,99.90
2018-06-21T11:21:12.559Z,99.90
2018-06-21T11:24:21.454Z,99.90
2018-06-21T11:27:29.653Z,99.90
2018-06-21T11:30:42.149Z,99.90
2018-06-21T11:34:01.139Z,99.90
2018-06-21T11:37:21.940Z,99.90
2018-06-21T11:40:37.043Z,99.90
2018-06-21T11:47:30.814Z,99.90
2018-06-21T11:50:44.925Z,99.90
2018-06-21T11:53:58.596Z,99.90
2018-06-21T11:57:21.418Z,99.90
2018-06-21T12:00:32.561Z,99.90
2018-06-21T12:07:06.970Z,99.90
2018-06-21T12:10:17.814Z,99.90
2018-06-21T12:13:36.853Z,99.90
2018-06-21T12:16:56.854Z,99.90
2018-06-21T12:20:21.456Z,99.90
2018-06-21T12:23:34.160Z,99.90
2018-06-21T12:26:47.402Z,99.90
2018-06-21T12:30:11.545Z,99.90
2018-06-21T12:33:25.611Z,99.90
2018-06-21T12:36:40.071Z,99.90
2018-06-21T12:43:12.295Z,99.90
2018-06-21T12:46:36.080Z,99.90
2018-06-21T12:49:50.814Z,99.90
2018-06-21T12:53:03.159Z,99.90
2018-06-21T12:56:17.879Z,99.90
2018-06-21T12:59:34.532Z,99.90
2018-06-21T13:02:47.013Z,99.90
2018-06-21T13:05:51.430Z,99.90
2018-06-21T13:09:12.822Z,99.90
2018-06-21T13:12:35.606Z,99.90
2018-06-21T13:15:40.464Z,99.90
2018-06-21T13:18:44.969Z,99.90
2018-06-21T13:21:49.566Z,99.90
2018-06-21T13:24:54.166Z,99.90
2018-06-21T13:27:59.004Z,99.90
2018-06-21T13:31:03.368Z,99.90
2018-06-21T13:34:07.754Z,99.90
2018-06-21T13:37:12.210Z,99.90
2018-06-21T13:40:16.819Z,99.90
2018-06-21T13:46:25.351Z,99.80
2018-06-21T13:49:29.858Z,98.30
2018-06-21T13:52:34.191Z,96.40
2018-06-21T13:55:38.505Z,96.60
2018-06-21T13:58:42.852Z,95.90
2018-06-21T14:01:47.276Z,95.30
2018-06-21T14:04:51.567Z,93.40
2018-06-21T14:07:56.061Z,93.90
2018-06-21T14:11:00.238Z,93.90
2018-06-21T14:14:04.668Z,94.20
2018-06-21T14:17:08.972Z,95.50
2018-06-21T14:20:13.390Z,93.80
2018-06-21T14:23:17.704Z,92.10
2018-06-21T14:26:22.026Z,91.50
2018-06-21T14:29:26.430Z,89.60
2018-06-21T14:32:30.764Z,90.60
2018-06-21T14:35:35.155Z,88.50
2018-06-21T14:38:39.759Z,88.90
2018-06-21T14:41:44.138Z,90.80
2018-06-21T14:44:48.470Z,91.80
2018-06-21T14:47:59.207Z,91.90
2018-06-21T14:51:03.735Z,91.80
2018-06-21T14:54:08.135Z,92.50
2018-06-21T14:57:12.553Z,92.40
2018-06-21T15:00:16.844Z,92.40
2018-06-21T15:03:21.253Z,92.10
2018-06-21T15:06:25.620Z,92.10
2018-06-21T15:09:29.970Z,91.40
2018-06-21T15:12:34.274Z,90.70
2018-06-21T15:15:38.698Z,90.40
2018-06-21T15:18:42.989Z,88.50
2018-06-21T15:21:47.345Z,89.70
2018-06-21T15:24:51.657Z,90.50
2018-06-21T15:27:56.019Z,89.90
2018-06-21T15:31:00.401Z,84.50
2018-06-21T15:37:08.979Z,84.40
2018-06-21T15:40:13.349Z,87.90
2018-06-21T15:43:17.779Z,87.90
2018-06-21T15:46:22.171Z,87.30
2018-06-21T15:49:26.584Z,85.70
2018-06-21T15:52:31.279Z,84.60
2018-06-21T15:55:35.649Z,81.60
2018-06-21T15:58:40.353Z,82.70
2018-06-21T16:01:44.705Z,83.90
2018-06-21T16:04:49.037Z,87.60
2018-06-21T16:07:53.457Z,90.00
2018-06-21T16:10:58.229Z,89.90
2018-06-21T16:14:02.621Z,87.60
2018-06-21T16:17:07.210Z,89.80
2018-06-21T16:20:11.586Z,90.60
2018-06-21T16:23:16.149Z,91.10
2018-06-21T16:26:20.478Z,90.50
2018-06-21T16:29:24.905Z,87.40
2018-06-21T16:32:29.443Z,88.00
2018-06-21T16:35:33.933Z,89.70
2018-06-21T16:38:38.623Z,91.50
2018-06-21T16:41:43.251Z,88.90
2018-06-21T16:44:47.636Z,82.20
2018-06-21T16:47:52.173Z,79.30
2018-06-21T16:50:56.928Z,78.20
2018-06-21T16:54:01.309Z,79.60
2018-06-21T16:57:05.947Z,78.30
2018-06-21T17:00:10.303Z,77.10
2018-06-21T17:03:14.892Z,74.20
2018-06-21T17:06:19.597Z,72.50
2018-06-21T17:09:24.401Z,74.80
2018-06-21T17:12:29.329Z,72.10
2018-06-21T17:18:37.976Z,73.50
2018-06-21T17:21:42.423Z,73.10
2018-06-21T17:24:46.833Z,75.80
2018-06-21T17:27:51.242Z,78.50
2018-06-21T17:30:55.620Z,77.70
2018-06-21T17:34:00.115Z,78.70
2018-06-21T17:37:04.546Z,78.90
2018-06-21T17:40:08.865Z,80.30
2018-06-21T17:43:13.353Z,79.20
2018-06-21T17:46:17.890Z,79.30
2018-06-21T17:49:23.688Z,79.90
2018-06-21T17:52:28.923Z,79.60
2018-06-21T17:55:33.348Z,79.20
2018-06-21T17:58:37.798Z,80.20
2018-06-21T18:01:42.379Z,82.40
2018-06-21T18:04:47.604Z,83.60
2018-06-21T18:07:52.074Z,85.20
2018-06-21T18:10:56.556Z,85.60
2018-06-21T18:14:01.026Z,86.30
2018-06-21T18:17:05.409Z,87.20
2018-06-21T18:23:14.111Z,89.50
2018-06-21T18:26:18.488Z,90.50
2018-06-21T18:29:23.215Z,90.60
2018-06-21T18:32:29.151Z,90.60
2018-06-21T18:35:34.595Z,90.80
2018-06-21T18:38:39.013Z,89.30
2018-06-21T18:41:44.494Z,90.40
2018-06-21T18:44:50.894Z,90.60
2018-06-21T18:47:57.556Z,90.30
2018-06-21T18:51:04.114Z,88.70
2018-06-21T18:54:10.347Z,88.70
2018-06-21T18:57:22.145Z,89.40
2018-06-21T19:00:34.602Z,90.00
2018-06-21T19:03:45.316Z,90.30
2018-06-21T19:06:54.869Z,89.60
2018-06-21T19:10:08.829Z,89.90
2018-06-21T19:13:18.899Z,90.80
2018-06-21T19:16:26.041Z,92.00
2018-06-21T19:19:36.923Z,92.50
2018-06-21T19:22:44.895Z,92.90
2018-06-21T19:25:55.864Z,93.20
2018-06-21T19:29:06.177Z,93.60
2018-06-21T19:32:21.211Z,93.80
2018-06-21T19:35:33.782Z,94.10
2018-06-21T19:38:43.046Z,94.40
2018-06-21T19:41:49.194Z,93.80
2018-06-21T19:44:53.733Z,94.10
2018-06-21T19:47:58.700Z,94.10
2018-06-21T19:51:08.672Z,94.20
2018-06-21T19:54:23.362Z,94.50
2018-06-21T19:57:31.190Z,94.70
2018-06-21T20:00:41.345Z,94.90
2018-06-21T20:04:18.660Z,94.90
2018-06-21T20:07:30.642Z,94.90
2018-06-21T20:10:53.636Z,95.30
2018-06-21T20:14:03.481Z,95.40
2018-06-21T20:17:19.287Z,95.40
2018-06-21T20:20:40.078Z,95.70
2018-06-21T20:24:04.180Z,95.90
2018-06-21T20:27:19.574Z,96.40
2018-06-21T20:30:34.976Z,96.70
2018-06-21T20:33:53.148Z,97.10
2018-06-21T20:37:13.171Z,97.20
2018-06-21T20:40:23.668Z,97.30
2018-06-21T20:43:37.117Z,97.00
2018-06-21T20:46:55.199Z,97.30
2018-06-21T20:50:06.654Z,97.20
2018-06-21T20:53:20.014Z,97.30
2018-06-21T20:56:55.249Z,97.20
2018-06-21T21:00:06.480Z,97.70
2018-06-21T21:06:48.796Z,97.70
2018-06-21T21:10:05.198Z,97.90
2018-06-21T21:13:21.641Z,98.20
2018-06-21T21:19:50.882Z,98.30
2018-06-21T21:22:59.480Z,98.40
2018-06-21T21:29:56.232Z,99.20
2018-06-21T21:33:23.214Z,99.10
2018-06-21T21:36:39.174Z,99.40
2018-06-21T21:39:59.219Z,99.40
2018-06-21T21:43:29.253Z,99.40
2018-06-21T21:46:44.500Z,99.50
2018-06-21T21:49:54.883Z,99.50
2018-06-21T21:53:15.546Z,99.90
2018-06-21T21:56:32.212Z,99.80
2018-06-21T21:59:36.509Z,99.90
2018-06-21T22:02:40.948Z,99.90
2018-06-21T22:05:45.539Z,99.90
2018-06-21T22:08:49.924Z,99.90
2018-06-21T22:11:54.288Z,99.40
2018-06-21T22:14:58.676Z,99.50
2018-06-21T22:18:03.020Z,99.40
2018-06-21T22:21:07.419Z,99.00
2018-06-21T22:24:11.759Z,99.00
2018-06-21T22:27:16.090Z,98.50
2018-06-21T22:30:20.381Z,99.40
2018-06-21T22:33:24.662Z,99.90
2018-06-21T22:36:29.183Z,99.90
2018-06-21T22:39:33.490Z,99.90
2018-06-21T22:42:41.235Z,99.90
2018-06-21T22:45:54.180Z,99.90
2018-06-21T22:49:11.299Z,99.90
2018-06-21T22:52:32.296Z,99.90
2018-06-21T22:59:28.750Z,99.90
2018-06-21T23:02:43.830Z,99.90
2018-06-21T23:06:08.963Z,99.90
2018-06-21T23:09:28.471Z,99.90
2018-06-21T23:12:44.507Z,99.90
2018-06-21T23:16:01.494Z,99.90
2018-06-21T23:23:18.008Z,99.90
2018-06-21T23:26:51.844Z,99.90
2018-06-21T23:30:13.509Z,99.90
2018-06-21T23:33:35.541Z,99.90
2018-06-21T23:36:51.548Z,99.90
2018-06-21T23:40:01.593Z,99.90
2018-06-21T23:43:13.532Z,99.90
2018-06-21T23:46:24.133Z,99.90
2018-06-21T23:49:40.429Z,99.90
2018-06-21T23:57:15.137Z,99.90
